Time;durP1;ratioP1;P1;durP2;ratioP2;P2;SDS_P1;SDS_P2;PMS_P1;PMS_P2;Temp;Humidity;BMP_temperature;BMP_pressure;BME280_temperature;BME280_humidity;BME280_pressure;Samples;Min_cycle;Max_cycle;Signal;HPM_P1;HPM_P2
2022/09/02 00:01:45;;;;;;;6.67;6.03;;;14.90;99.90;;;;;;5035626;28;20200;-87
2022/09/02 00:04:23;;;;;;;7.37;6.67;;;14.80;99.90;;;;;;5053178;28;20174;-88
2022/09/02 00:06:51;;;;;;;7.00;6.40;;;14.80;99.90;;;;;;5035735;28;20235;-87
2022/09/02 00:09:19;;;;;;;7.10;6.40;;;14.80;99.90;;;;;;5035933;28;20170;-88
2022/09/02 00:11:47;;;;;;;7.50;6.47;;;14.70;99.90;;;;;;5051910;28;20323;-87
2022/09/02 00:14:18;;;;;;;7.40;6.70;;;14.70;99.90;;;;;;5031869;28;20269;-87
2022/09/02 00:16:49;;;;;;;6.73;6.13;;;14.60;99.90;;;;;;5014811;28;20245;-87
2022/09/02 00:19:17;;;;;;;7.27;6.60;;;14.60;99.90;;;;;;5041322;28;20228;-87
2022/09/02 00:21:44;;;;;;;7.13;6.47;;;14.60;99.90;;;;;;5034065;28;20205;-87
2022/09/02 00:24:10;;;;;;;10.17;6.90;;;14.60;99.90;;;;;;5033998;28;20182;-87
2022/09/02 00:26:36;;;;;;;6.70;6.10;;;14.50;99.90;;;;;;5050486;28;20185;-87
2022/09/02 00:29:02;;;;;;;7.20;6.60;;;14.50;99.90;;;;;;5033081;28;20185;-87
2022/09/02 00:31:28;;;;;;;6.93;6.33;;;14.50;99.90;;;;;;5034139;28;20229;-87
2022/09/02 00:33:54;;;;;;;6.17;5.60;;;14.40;99.90;;;;;;5030631;28;20205;-87
2022/09/02 00:36:20;;;;;;;6.37;5.83;;;14.40;99.90;;;;;;5014378;28;20658;-87
2022/09/02 00:38:46;;;;;;;6.43;5.87;;;14.40;99.90;;;;;;5017343;28;20202;-87
2022/09/02 00:41:12;;;;;;;6.73;5.63;;;14.40;99.90;;;;;;5033743;28;20251;-87
2022/09/02 00:43:41;;;;;;;6.17;5.57;;;14.30;99.90;;;;;;5033642;28;20174;-87
2022/09/02 00:46:08;;;;;;;6.50;5.67;;;14.30;99.90;;;;;;5034114;28;20174;-87
2022/09/02 00:48:39;;;;;;;6.23;5.53;;;14.20;99.90;;;;;;5033312;28;20235;-87
2022/09/02 00:51:05;;;;;;;6.13;5.63;;;14.20;99.90;;;;;;5033408;28;20209;-87
2022/09/02 00:53:31;;;;;;;6.07;5.57;;;14.10;99.90;;;;;;5033200;28;20273;-87
2022/09/02 00:55:59;;;;;;;6.20;5.60;;;14.10;99.90;;;;;;5033491;28;20260;-87
2022/09/02 00:58:29;;;;;;;6.10;5.60;;;14.00;99.90;;;;;;5033547;28;20663;-87
2022/09/02 01:00:57;;;;;;;5.97;5.43;;;14.00;99.90;;;;;;5046585;28;20202;-87
2022/09/02 01:03:30;;;;;;;6.30;5.70;;;13.90;99.90;;;;;;5017197;28;20191;-87
2022/09/02 01:05:58;;;;;;;6.40;5.77;;;13.90;99.90;;;;;;5049409;28;20201;-87
2022/09/02 01:08:31;;;;;;;7.10;6.40;;;13.90;99.90;;;;;;5032551;28;20182;-87
2022/09/02 01:10:57;;;;;;;7.00;6.17;;;13.80;99.90;;;;;;5033293;28;20667;-87
2022/09/02 01:13:25;;;;;;;6.23;5.63;;;13.90;99.90;;;;;;5049758;28;20193;-87
2022/09/02 01:16:11;;;;;;;6.90;6.20;;;13.90;99.90;;;;;;5033291;28;20185;-87
2022/09/02 01:18:39;;;;;;;6.67;6.00;;;13.90;99.90;;;;;;5032466;28;20212;-87
2022/09/02 01:21:05;;;;;;;6.07;5.50;;;13.90;99.90;;;;;;5033003;28;20291;-87
2022/09/02 01:23:34;;;;;;;6.27;5.77;;;13.90;99.90;;;;;;5029662;28;20175;-87
2022/09/02 01:26:02;;;;;;;5.70;5.20;;;13.80;99.90;;;;;;5013588;28;20186;-87
2022/09/02 01:28:28;;;;;;;5.80;5.30;;;13.80;99.90;;;;;;5027444;28;20260;-87
2022/09/02 01:30:55;;;;;;;6.07;5.47;;;13.80;99.90;;;;;;5032773;28;20198;-87
2022/09/02 01:33:22;;;;;;;5.50;5.00;;;13.80;99.90;;;;;;5032764;28;20674;-87
2022/09/02 01:35:48;;;;;;;5.73;5.20;;;13.80;99.90;;;;;;5032986;28;20226;-87
2022/09/02 01:38:14;;;;;;;5.70;5.30;;;13.80;99.90;;;;;;5032279;28;20687;-87
2022/09/02 01:40:42;;;;;;;5.40;5.00;;;13.80;99.90;;;;;;5032950;28;20208;-87
2022/09/02 01:43:20;;;;;;;6.40;5.80;;;13.70;99.90;;;;;;5029309;28;20212;-87
2022/09/02 01:45:50;;;;;;;5.70;5.23;;;13.70;99.90;;;;;;5018369;28;20182;-87
2022/09/02 01:48:16;;;;;;;6.53;5.93;;;13.70;99.90;;;;;;5032582;28;20194;-87
2022/09/02 01:50:47;;;;;;;10.23;7.30;;;13.70;99.90;;;;;;5045332;28;20202;-87
2022/09/02 01:53:14;;;;;;;7.80;6.13;;;13.60;99.90;;;;;;5015571;28;20182;-87
2022/09/02 01:55:40;;;;;;;6.93;6.23;;;13.50;99.90;;;;;;5032539;28;20182;-88
2022/09/02 01:58:06;;;;;;;7.10;6.40;;;13.50;99.90;;;;;;5031844;28;20292;-88
2022/09/02 02:00:33;;;;;;;6.47;5.87;;;13.40;99.90;;;;;;5049379;28;20186;-87
2022/09/02 02:02:58;;;;;;;6.17;5.60;;;13.50;99.90;;;;;;5032542;28;20200;-88
2022/09/02 02:05:24;;;;;;;5.50;5.00;;;13.50;99.90;;;;;;5029128;28;20181;-87
2022/09/02 02:07:52;;;;;;;6.47;5.63;;;13.50;99.90;;;;;;5012921;28;20178;-87
2022/09/02 02:10:19;;;;;;;5.63;5.13;;;13.50;99.90;;;;;;5030636;28;20184;-88
2022/09/02 02:12:46;;;;;;;5.80;5.20;;;13.50;99.90;;;;;;5032401;28;20196;-87
2022/09/02 02:15:16;;;;;;;6.43;5.83;;;13.40;99.90;;;;;;5032633;28;20246;-88
2022/09/02 02:17:43;;;;;;;6.00;5.10;;;13.30;99.90;;;;;;5032144;28;20209;-88
2022/09/02 02:20:11;;;;;;;5.50;5.00;;;13.20;99.90;;;;;;5032171;28;20197;-89
2022/09/02 02:22:37;;;;;;;6.00;4.87;;;13.20;99.90;;;;;;5032558;28;20250;-87
2022/09/02 02:25:05;;;;;;;6.13;5.43;;;13.10;99.90;;;;;;5028808;28;20177;-88
2022/09/02 02:27:31;;;;;;;5.73;4.97;;;13.00;99.90;;;;;;5012625;28;20224;-88
2022/09/02 02:30:01;;;;;;;5.07;4.60;;;13.00;99.90;;;;;;5026366;28;20196;-87
2022/09/02 02:32:31;;;;;;;4.83;4.43;;;12.90;99.90;;;;;;5032539;28;20327;-87
2022/09/02 02:34:58;;;;;;;4.70;4.30;;;12.90;99.90;;;;;;5032662;28;20296;-87
2022/09/02 02:37:26;;;;;;;6.57;5.30;;;12.80;99.90;;;;;;5032391;28;20209;-87
2022/09/02 02:39:52;;;;;;;6.50;5.63;;;12.80;99.90;;;;;;5028501;28;20201;-88
2022/09/02 02:42:19;;;;;;;6.50;5.90;;;12.80;99.90;;;;;;5012768;28;20206;-87
2022/09/02 02:44:45;;;;;;;5.93;5.40;;;12.80;99.90;;;;;;5024988;28;20187;-87
2022/09/02 02:47:12;;;;;;;6.17;5.27;;;12.80;99.90;;;;;;5012411;28;20182;-88
2022/09/02 02:49:41;;;;;;;6.13;5.53;;;12.80;99.90;;;;;;5027233;28;20325;-88
2022/09/02 02:52:08;;;;;;;5.93;5.43;;;12.80;99.90;;;;;;5051550;28;20204;-87
2022/09/02 02:54:35;;;;;;;8.80;5.80;;;12.70;99.90;;;;;;5035535;28;20261;-88
2022/09/02 02:57:03;;;;;;;5.70;5.20;;;12.70;99.90;;;;;;5036022;28;20180;-87
2022/09/02 02:59:30;;;;;;;6.07;5.57;;;12.70;99.90;;;;;;5035510;28;20197;-88
2022/09/02 03:01:57;;;;;;;6.50;5.80;;;12.80;99.90;;;;;;5035666;28;20292;-87
2022/09/02 03:04:23;;;;;;;6.10;5.60;;;12.70;99.90;;;;;;5035785;28;20188;-87
2022/09/02 03:06:50;;;;;;;6.97;5.47;;;12.70;99.90;;;;;;5035298;28;20180;-87
2022/09/02 03:09:19;;;;;;;6.57;5.40;;;12.80;99.90;;;;;;5035599;28;20180;-87
2022/09/02 03:11:46;;;;;;;5.93;5.13;;;12.70;99.90;;;;;;5052304;28;20204;-87
2022/09/02 03:14:13;;;;;;;6.43;5.83;;;12.70;99.90;;;;;;5035385;28;20230;-87
2022/09/02 03:16:40;;;;;;;6.53;5.90;;;12.70;99.90;;;;;;5035150;28;20195;-90
2022/09/02 03:19:06;;;;;;;6.80;6.20;;;12.70;99.90;;;;;;5035157;28;20702;-87
2022/09/02 03:21:32;;;;;;;7.63;6.93;;;12.60;99.90;;;;;;5035270;28;20209;-87
2022/09/02 03:23:59;;;;;;;6.70;6.10;;;12.60;99.90;;;;;;5051336;28;20184;-88
2022/09/02 03:26:25;;;;;;;6.80;6.10;;;12.60;99.90;;;;;;5051814;28;20191;-87
2022/09/02 03:28:55;;;;;;;6.03;5.53;;;12.60;99.90;;;;;;5034831;28;20187;-87
2022/09/02 03:31:23;;;;;;;8.10;5.90;;;12.70;99.90;;;;;;5035385;28;20201;-87
2022/09/02 03:33:50;;;;;;;8.03;5.80;;;12.70;99.90;;;;;;5034730;28;20219;-87
2022/09/02 03:36:25;;;;;;;6.20;5.60;;;12.60;99.90;;;;;;5035215;28;20178;-87
2022/09/02 03:38:52;;;;;;;5.00;4.60;;;12.60;99.90;;;;;;5034717;28;20294;-87
2022/09/02 03:41:18;;;;;;;6.43;5.47;;;12.50;99.90;;;;;;5051731;28;20192;-87
2022/09/02 03:43:47;;;;;;;5.37;4.90;;;12.40;99.90;;;;;;5051565;28;20207;-87
2022/09/02 03:46:14;;;;;;;5.00;4.60;;;12.40;99.90;;;;;;5052287;28;20180;-87
2022/09/02 03:48:40;;;;;;;5.10;4.60;;;12.40;99.90;;;;;;5035642;28;20195;-87
2022/09/02 03:51:10;;;;;;;5.43;4.83;;;12.40;99.90;;;;;;5036750;28;20270;-87
2022/09/02 03:53:37;;;;;;;7.90;4.83;;;12.30;99.90;;;;;;5031842;28;20721;-87
2022/09/02 03:56:06;;;;;;;5.23;4.73;;;12.30;99.90;;;;;;5032829;28;20215;-87
2022/09/02 03:58:33;;;;;;;5.67;5.17;;;12.20;99.90;;;;;;5015662;28;20292;-87
2022/09/02 04:01:01;;;;;;;5.90;5.30;;;12.20;99.90;;;;;;5015204;28;20199;-88
2022/09/02 04:03:27;;;;;;;5.67;5.17;;;12.10;99.90;;;;;;5026323;28;20236;-87
2022/09/02 04:05:53;;;;;;;5.67;5.17;;;12.10;99.90;;;;;;5051537;28;20175;-87
2022/09/02 04:08:22;;;;;;;7.83;5.20;;;12.10;99.90;;;;;;5034625;28;20190;-87
2022/09/02 04:10:50;;;;;;;8.57;5.83;;;12.10;99.90;;;;;;5034732;28;20203;-87
2022/09/02 04:13:16;;;;;;;6.07;5.53;;;12.10;99.90;;;;;;5031048;28;20222;-88
2022/09/02 04:15:46;;;;;;;8.13;5.50;;;12.00;99.90;;;;;;5014616;28;20189;-88
2022/09/02 04:18:15;;;;;;;6.03;5.40;;;12.00;99.90;;;;;;5023292;28;20216;-87
2022/09/02 04:20:42;;;;;;;6.10;5.50;;;12.00;99.90;;;;;;5033986;28;20199;-87
2022/09/02 04:23:08;;;;;;;6.60;6.00;;;12.00;99.90;;;;;;5034350;28;20170;-87
2022/09/02 04:25:39;;;;;;;5.77;5.27;;;12.00;99.90;;;;;;5034130;28;20202;-87
2022/09/02 04:28:05;;;;;;;7.40;5.60;;;11.90;99.90;;;;;;5033567;28;20209;-87
2022/09/02 04:30:31;;;;;;;6.70;5.73;;;12.00;99.90;;;;;;5033806;28;20268;-87
2022/09/02 04:32:57;;;;;;;6.50;5.90;;;12.00;99.90;;;;;;5034431;28;20189;-87
2022/09/02 04:35:24;;;;;;;5.27;4.80;;;12.00;99.90;;;;;;5034361;28;20207;-87
2022/09/02 04:37:50;;;;;;;5.70;5.13;;;12.00;99.90;;;;;;5030445;28;20239;-87
2022/09/02 04:40:16;;;;;;;6.83;5.80;;;11.90;99.90;;;;;;5014462;28;20184;-87
2022/09/02 04:42:43;;;;;;;5.63;5.03;;;11.90;99.90;;;;;;5014722;28;20178;-87
2022/09/02 04:45:09;;;;;;;10.20;5.43;;;11.90;99.90;;;;;;5032907;28;20183;-87
2022/09/02 04:47:37;;;;;;;7.60;5.73;;;11.80;99.90;;;;;;5033507;28;20261;-87
2022/09/02 04:50:05;;;;;;;5.93;5.33;;;11.80;99.90;;;;;;5033543;28;20210;-87
2022/09/02 04:52:34;;;;;;;6.40;5.80;;;11.80;99.90;;;;;;5033705;28;20256;-87
2022/09/02 04:55:00;;;;;;;6.23;5.60;;;11.80;99.90;;;;;;5033375;28;20186;-87
2022/09/02 04:57:29;;;;;;;8.20;5.80;;;11.80;99.90;;;;;;5033288;28;20211;-88
2022/09/02 04:59:56;;;;;;;6.03;5.47;;;11.80;99.90;;;;;;5033636;28;20201;-87
2022/09/02 05:02:22;;;;;;;7.00;6.03;;;11.80;99.90;;;;;;5033410;28;20251;-87
2022/09/02 05:04:48;;;;;;;5.77;5.27;;;11.80;99.90;;;;;;5033274;28;20179;-87
2022/09/02 05:07:23;;;;;;;5.43;4.93;;;11.90;99.90;;;;;;5034395;28;20231;-87
2022/09/02 05:09:54;;;;;;;9.73;5.87;;;11.80;99.90;;;;;;5032609;28;20186;-87
2022/09/02 05:12:20;;;;;;;6.10;5.40;;;11.90;99.90;;;;;;5032876;28;20221;-87
2022/09/02 05:14:51;;;;;;;5.90;5.30;;;11.90;99.90;;;;;;5033286;28;20183;-87
2022/09/02 05:17:20;;;;;;;7.27;5.80;;;11.80;99.90;;;;;;5027665;28;20190;-87
2022/09/02 05:19:48;;;;;;;6.77;5.20;;;11.90;99.90;;;;;;5013747;28;20277;-87
2022/09/02 05:22:15;;;;;;;6.70;6.10;;;12.00;99.90;;;;;;5024989;28;20570;-88
2022/09/02 05:24:42;;;;;;;6.50;5.37;;;12.00;99.90;;;;;;5013392;28;20229;-88
2022/09/02 05:27:14;;;;;;;7.80;5.90;;;12.10;99.90;;;;;;5028925;28;20207;-88
2022/09/02 05:29:40;;;;;;;6.47;5.80;;;12.10;99.90;;;;;;5013346;28;20175;-88
2022/09/02 05:32:07;;;;;;;7.33;6.43;;;12.20;99.90;;;;;;5046413;28;20217;-88
2022/09/02 05:34:35;;;;;;;7.10;5.93;;;12.20;99.90;;;;;;5044663;28;20226;-87
2022/09/02 05:37:04;;;;;;;7.90;5.87;;;12.30;99.90;;;;;;5032608;28;20636;-88
2022/09/02 05:39:32;;;;;;;8.93;5.77;;;12.30;99.90;;;;;;5032943;28;20180;-88
2022/09/02 05:41:59;;;;;;;6.40;5.80;;;12.40;99.90;;;;;;5032927;28;20198;-88
2022/09/02 05:44:28;;;;;;;7.27;6.37;;;12.40;99.90;;;;;;5032468;28;20231;-88
2022/09/02 05:46:54;;;;;;;7.20;6.50;;;12.50;99.90;;;;;;5032586;28;20205;-88
2022/09/02 05:49:22;;;;;;;6.80;5.60;;;12.60;99.90;;;;;;5032467;28;20183;-88
2022/09/02 05:51:56;;;;;;;7.33;5.60;;;12.70;99.90;;;;;;5033636;28;20208;-88
2022/09/02 05:54:31;;;;;;;5.93;5.43;;;12.80;99.90;;;;;;5033227;28;20179;-88
2022/09/02 05:57:12;;;;;;;7.63;5.77;;;12.90;99.90;;;;;;5032797;28;20205;-88
2022/09/02 05:59:43;;;;;;;6.23;5.60;;;12.90;99.90;;;;;;5032927;28;20189;-88
2022/09/02 06:02:14;;;;;;;6.73;5.67;;;13.00;99.90;;;;;;5032355;28;20319;-87
2022/09/02 06:04:47;;;;;;;6.33;5.60;;;13.00;99.90;;;;;;5032545;28;20184;-88
2022/09/02 06:07:17;;;;;;;7.97;5.60;;;13.00;99.90;;;;;;5032762;28;20191;-89
2022/09/02 06:09:45;;;;;;;5.73;5.23;;;13.10;99.90;;;;;;5049096;28;20186;-89
2022/09/02 06:12:14;;;;;;;6.80;5.40;;;13.10;99.90;;;;;;5032348;28;20204;-88
2022/09/02 06:14:41;;;;;;;6.80;5.73;;;13.20;99.90;;;;;;5032240;28;20183;-88
2022/09/02 06:17:09;;;;;;;6.43;5.93;;;13.20;99.90;;;;;;5032410;28;20238;-88
2022/09/02 06:19:46;;;;;;;8.40;5.83;;;13.30;99.90;;;;;;5032089;28;20260;-88
2022/09/02 06:22:12;;;;;;;6.43;5.77;;;13.40;99.90;;;;;;5025357;28;20199;-88
2022/09/02 06:24:51;;;;;;;7.63;5.73;;;13.40;99.90;;;;;;5048862;28;20186;-88
2022/09/02 06:27:22;;;;;;;6.30;5.70;;;13.50;99.90;;;;;;5038179;28;20174;-88
2022/09/02 06:29:51;;;;;;;5.90;5.40;;;13.70;99.90;;;;;;5038784;28;20220;-87
2022/09/02 06:32:19;;;;;;;5.93;5.43;;;13.80;99.90;;;;;;5056426;28;20189;-88
2022/09/02 06:34:47;;;;;;;6.00;5.40;;;13.90;99.90;;;;;;5038632;28;20194;-87
2022/09/02 06:37:13;;;;;;;6.07;5.57;;;14.00;99.90;;;;;;5038234;28;20198;-87
2022/09/02 06:39:43;;;;;;;8.10;5.37;;;14.10;99.90;;;;;;5054945;28;20205;-86
2022/09/02 06:42:12;;;;;;;7.00;5.73;;;14.20;99.90;;;;;;5038850;28;20221;-87
2022/09/02 06:44:46;;;;;;;5.90;5.40;;;14.30;99.90;;;;;;5036200;28;20213;-86
2022/09/02 06:47:12;;;;;;;6.07;5.57;;;14.40;99.90;;;;;;5018632;28;20202;-86
2022/09/02 06:49:38;;;;;;;6.93;5.97;;;14.50;99.90;;;;;;5018515;28;20221;-87
2022/09/02 06:52:05;;;;;;;10.73;5.60;;;14.60;99.90;;;;;;5018570;28;20210;-86
2022/09/02 06:54:34;;;;;;;5.77;5.07;;;14.60;99.90;;;;;;5021380;28;20193;-87
2022/09/02 06:57:14;;;;;;;6.07;5.53;;;14.80;99.90;;;;;;5041082;28;20185;-87
2022/09/02 06:59:41;;;;;;;6.27;5.10;;;14.90;99.90;;;;;;5028160;28;20186;-87
2022/09/02 07:02:07;;;;;;;5.60;5.10;;;15.00;99.90;;;;;;5020050;28;20206;-87
2022/09/02 07:07:20;;;;;;;5.93;5.33;;;15.20;99.90;;;;;;5047125;28;20175;-87
2022/09/02 07:09:59;;;;;;;5.10;4.60;;;15.30;99.90;;;;;;5039561;28;20174;-90
2022/09/02 07:12:48;;;;;;;6.63;4.90;;;15.40;99.90;;;;;;5021495;28;20193;-89
2022/09/02 07:15:24;;;;;;;6.40;5.43;;;15.60;99.90;;;;;;5038542;28;20182;-90
2022/09/02 07:17:54;;;;;;;4.80;4.40;;;15.70;99.90;;;;;;5038358;28;20209;-90
2022/09/02 07:20:35;;;;;;;5.80;4.70;;;15.80;99.90;;;;;;5038342;28;20220;-91
2022/09/02 07:23:04;;;;;;;4.43;4.00;;;15.90;99.90;;;;;;5037603;28;20300;-90
2022/09/02 07:25:37;;;;;;;4.43;3.57;;;16.00;99.90;;;;;;5034367;28;20198;-90
2022/09/02 07:28:09;;;;;;;5.90;3.30;;;16.10;99.90;;;;;;5025361;28;20186;-90
2022/09/02 07:30:36;;;;;;;4.77;3.57;;;16.30;99.90;;;;;;5018113;28;20206;-90
2022/09/02 07:33:12;;;;;;;4.60;3.20;;;16.40;99.90;;;;;;5019479;28;20174;-91
2022/09/02 07:35:42;;;;;;;3.50;3.20;;;16.50;99.90;;;;;;5034410;28;20186;-90
2022/09/02 07:38:10;;;;;;;3.17;2.60;;;16.70;99.90;;;;;;5018162;28;20203;-91
2022/09/02 07:40:39;;;;;;;3.73;3.43;;;16.80;99.90;;;;;;5022466;28;20193;-90
2022/09/02 07:43:10;;;;;;;3.83;3.10;;;16.90;99.90;;;;;;5017959;28;20202;-91
2022/09/02 07:45:42;;;;;;;3.33;3.03;;;17.10;99.90;;;;;;5018778;28;20178;-92
2022/09/02 07:48:09;;;;;;;2.90;2.70;;;17.20;99.90;;;;;;5018946;28;20171;-86
2022/09/02 07:50:38;;;;;;;3.23;2.67;;;17.30;99.90;;;;;;5024571;28;20218;-86
2022/09/02 07:53:07;;;;;;;3.20;2.90;;;17.50;99.90;;;;;;5033162;28;20194;-86
2022/09/02 07:55:36;;;;;;;2.90;2.53;;;17.60;99.90;;;;;;5033061;28;20265;-88
2022/09/02 08:01:14;;;;;;;4.93;2.17;;;17.90;99.90;;;;;;5036873;28;20262;-88
2022/09/02 08:03:43;;;;;;;3.13;2.50;;;18.10;99.90;;;;;;5024442;28;20205;-88
2022/09/02 08:06:12;;;;;;;3.08;2.08;;;18.20;99.90;;;;;;5040065;28;20178;-88
2022/09/02 08:08:41;;;;;;;3.30;2.15;;;18.30;99.90;;;;;;5038571;28;20170;-88
2022/09/02 08:11:11;;;;;;;3.33;2.33;;;18.40;99.90;;;;;;5021920;28;20208;-89
2022/09/02 08:13:38;;;;;;;2.25;1.98;;;18.50;99.90;;;;;;5027457;28;20186;-89
2022/09/02 08:16:04;;;;;;;3.08;2.10;;;18.70;99.90;;;;;;5036286;28;20178;-89
2022/09/02 08:18:31;;;;;;;3.65;2.20;;;18.80;99.90;;;;;;5032219;28;20210;-88
2022/09/02 08:20:57;;;;;;;2.35;2.00;;;18.90;99.90;;;;;;5044405;28;20248;-88
2022/09/02 08:23:23;;;;;;;2.03;1.83;;;19.10;99.90;;;;;;5034521;28;20205;-88
2022/09/02 08:25:50;;;;;;;3.47;2.03;;;19.20;99.90;;;;;;5023907;28;20181;-89
2022/09/02 08:28:15;;;;;;;3.67;1.83;;;19.30;99.90;;;;;;5028916;28;20184;-88
2022/09/02 08:30:42;;;;;;;2.00;1.80;;;19.50;99.90;;;;;;5022264;28;20292;-89
2022/09/02 08:33:08;;;;;;;4.68;1.90;;;19.60;99.90;;;;;;5023805;28;20221;-89
2022/09/02 08:35:34;;;;;;;2.55;1.67;;;19.70;99.90;;;;;;5026125;28;20209;-88
2022/09/02 08:38:00;;;;;;;1.80;1.70;;;19.90;99.90;;;;;;5027024;28;20197;-88
2022/09/02 08:40:39;;;;;;;1.83;1.70;;;20.10;99.90;;;;;;5042219;28;20253;-89
2022/09/02 08:43:26;;;;;;;2.92;1.55;;;20.20;99.90;;;;;;5026554;28;20174;-89
2022/09/02 08:45:57;;;;;;;3.42;1.75;;;20.40;99.90;;;;;;5029750;28;20174;-89
2022/09/02 08:48:44;;;;;;;1.77;1.40;;;20.40;99.90;;;;;;5029316;28;20177;-89
2022/09/02 08:51:18;;;;;;;1.90;1.60;;;20.50;99.90;;;;;;5023858;28;20292;-89
2022/09/02 08:54:00;;;;;;;3.10;1.80;;;20.70;99.90;;;;;;5040424;28;20182;-89
2022/09/02 08:56:31;;;;;;;3.70;1.98;;;20.80;99.90;;;;;;5024114;28;20201;-88
2022/09/02 08:59:01;;;;;;;2.83;1.92;;;21.00;99.90;;;;;;5021250;28;20218;-89
2022/09/02 09:02:03;;;;;;;2.42;1.73;;;21.00;99.90;;;;;;5017921;28;20292;-89
2022/09/02 09:04:57;;;;;;;2.78;1.70;;;21.20;99.90;;;;;;5032554;28;20265;-89
2022/09/02 09:07:29;;;;;;;1.95;1.48;;;21.30;99.90;;;;;;5028262;28;20270;-88
2022/09/02 09:10:18;;;;;;;1.65;1.50;;;21.40;99.90;;;;;;5013975;28;20232;-89
2022/09/02 09:12:59;;;;;;;1.70;1.60;;;21.50;99.90;;;;;;5023643;28;20173;-90
2022/09/02 09:16:09;;;;;;;2.45;1.80;;;21.60;99.90;;;;;;5034417;28;20185;-88
2022/09/02 09:18:45;;;;;;;2.00;1.80;;;21.70;99.90;;;;;;5033277;28;20228;-88
2022/09/02 09:21:13;;;;;;;1.85;1.60;;;21.70;99.90;;;;;;5033548;28;20212;-87
2022/09/02 09:23:39;;;;;;;1.95;1.73;;;21.90;99.90;;;;;;5033224;28;20228;-87
2022/09/02 09:26:08;;;;;;;3.42;1.65;;;21.90;99.90;;;;;;5032910;28;20255;-87
2022/09/02 09:28:42;;;;;;;3.60;1.77;;;22.00;99.90;;;;;;5033035;28;20190;-90
2022/09/02 09:31:29;;;;;;;2.70;1.63;;;22.10;99.90;;;;;;5033231;28;20213;-89
2022/09/02 09:34:11;;;;;;;3.97;1.80;;;22.10;99.90;;;;;;5033366;28;20178;-91
2022/09/02 09:36:40;;;;;;;2.80;1.80;;;22.20;99.90;;;;;;5033175;28;20193;-90
2022/09/02 09:39:29;;;;;;;3.83;1.60;;;22.30;99.90;;;;;;5033528;28;20233;-91
2022/09/02 09:41:57;;;;;;;1.90;1.60;;;22.30;99.90;;;;;;5033117;28;20701;-90
2022/09/02 09:44:32;;;;;;;2.28;1.70;;;22.50;99.90;;;;;;5033392;28;20189;-90
2022/09/02 09:47:04;;;;;;;2.70;1.70;;;22.60;99.90;;;;;;5032858;28;20643;-90
2022/09/02 09:49:32;;;;;;;3.47;2.03;;;22.80;99.90;;;;;;5033029;28;20302;-91
2022/09/02 09:51:59;;;;;;;3.00;1.88;;;22.80;99.90;;;;;;5033302;28;20197;-90
2022/09/02 09:54:26;;;;;;;1.90;1.58;;;23.00;99.90;;;;;;5033154;28;20603;-88
2022/09/02 09:56:54;;;;;;;2.03;1.50;;;23.20;99.90;;;;;;5032592;28;20231;-88
2022/09/02 09:59:35;;;;;;;2.50;1.58;;;23.20;99.90;;;;;;5032475;28;20216;-88
2022/09/02 10:02:01;;;;;;;1.75;1.65;;;23.30;99.90;;;;;;5031783;28;20197;-88
2022/09/02 10:04:32;;;;;;;1.55;1.45;;;23.40;99.90;;;;;;5031004;28;20174;-89
2022/09/02 10:06:58;;;;;;;4.38;1.63;;;23.50;99.90;;;;;;5036820;28;20636;-88
2022/09/02 10:09:31;;;;;;;3.47;1.90;;;23.50;99.90;;;;;;5035031;28;20185;-88
2022/09/02 10:12:06;;;;;;;5.20;1.48;;;23.60;99.90;;;;;;5031764;28;20684;-89
2022/09/02 10:14:46;;;;;;;1.52;1.30;;;23.60;99.90;;;;;;5027705;28;20174;-88
2022/09/02 10:17:23;;;;;;;1.52;1.30;;;23.60;99.90;;;;;;5024337;28;20174;-88
2022/09/02 10:20:24;;;;;;;1.60;1.50;;;23.70;99.90;;;;;;5022161;28;20178;-86
2022/09/02 10:23:05;;;;;;;3.00;1.63;;;23.80;99.90;;;;;;5021716;28;20169;-74
2022/09/02 10:25:41;;;;;;;2.33;1.45;;;23.80;99.90;;;;;;5038329;28;20208;-88
2022/09/02 10:28:36;;;;;;;2.70;1.73;;;23.80;99.90;;;;;;5038930;28;20170;-88
2022/09/02 10:31:18;;;;;;;2.00;1.42;;;23.80;99.90;;;;;;5017359;28;20198;-88
2022/09/02 10:33:59;;;;;;;2.00;1.67;;;23.90;99.90;;;;;;5032255;28;20182;-88
2022/09/02 10:36:35;;;;;;;2.10;1.60;;;23.90;99.90;;;;;;5016508;28;20186;-88
2022/09/02 10:39:45;;;;;;;2.10;1.50;;;24.00;99.90;;;;;;5016488;28;20209;-88
2022/09/02 10:42:45;;;;;;;2.13;1.42;;;24.20;99.90;;;;;;5039097;28;20206;-88
2022/09/02 10:45:20;;;;;;;1.50;1.40;;;24.40;99.90;;;;;;5021739;28;20174;-88
2022/09/02 10:48:05;;;;;;;2.80;1.45;;;24.50;99.90;;;;;;5035017;28;20185;-88
2022/09/02 10:50:44;;;;;;;1.50;1.40;;;24.50;99.90;;;;;;5036525;28;20189;-88
2022/09/02 10:53:28;;;;;;;2.00;1.63;;;24.60;99.90;;;;;;5032620;28;20178;-88
2022/09/02 10:55:59;;;;;;;2.00;1.50;;;24.60;99.90;;;;;;5016489;28;20174;-88
2022/09/02 10:58:53;;;;;;;2.55;1.40;;;24.60;99.90;;;;;;5027840;28;20215;-89
2022/09/02 11:01:32;;;;;;;1.73;1.38;;;24.70;99.90;;;;;;5036121;28;20208;-89
2022/09/02 11:04:07;;;;;;;2.65;1.70;;;24.70;99.90;;;;;;5034023;28;20189;-88
2022/09/02 11:06:40;;;;;;;1.85;1.65;;;24.70;99.90;;;;;;5036124;28;20366;-88
2022/09/02 11:09:32;;;;;;;1.90;1.80;;;24.70;99.90;;;;;;5036345;28;20193;-89
2022/09/02 11:12:06;;;;;;;2.42;1.45;;;24.70;99.90;;;;;;5035653;28;20217;-89
2022/09/02 11:14:39;;;;;;;1.90;1.70;;;24.80;99.90;;;;;;5036371;28;20218;-88
2022/09/02 11:17:20;;;;;;;1.60;1.50;;;24.80;99.90;;;;;;5031939;28;20186;-88
2022/09/02 11:20:13;;;;;;;2.15;1.88;;;24.80;99.90;;;;;;5027020;28;20252;-88
2022/09/02 11:23:05;;;;;;;6.00;2.40;;;24.90;99.90;;;;;;5017473;28;20280;-88
2022/09/02 11:25:46;;;;;;;1.60;1.50;;;25.10;99.90;;;;;;5056040;28;20178;-89
2022/09/02 11:28:33;;;;;;;1.60;1.48;;;25.00;99.90;;;;;;5039799;28;20254;-89
2022/09/02 11:31:09;;;;;;;2.67;1.70;;;25.30;99.90;;;;;;5053095;28;20210;-89
2022/09/02 11:33:54;;;;;;;1.88;1.77;;;25.40;99.90;;;;;;5025927;28;20181;-89
2022/09/02 11:36:20;;;;;;;2.20;1.95;;;25.50;99.90;;;;;;5025239;28;20190;-89
2022/09/02 11:38:52;;;;;;;1.70;1.50;;;25.40;99.90;;;;;;5041416;28;20222;-89
2022/09/02 11:41:39;;;;;;;2.00;1.80;;;25.50;99.90;;;;;;5025353;28;20222;-88
2022/09/02 11:44:48;;;;;;;1.65;1.40;;;25.70;99.90;;;;;;5021804;28;20256;-88
2022/09/02 11:47:35;;;;;;;1.90;1.80;;;25.40;99.90;;;;;;5016258;28;20189;-88
2022/09/02 11:50:28;;;;;;;1.83;1.73;;;25.60;99.90;;;;;;5019216;28;20183;-88
2022/09/02 11:53:20;;;;;;;1.73;1.63;;;25.60;99.90;;;;;;5032850;28;20240;-89
2022/09/02 11:55:59;;;;;;;1.65;1.55;;;25.80;99.90;;;;;;5026828;28;20182;-89
2022/09/02 11:58:40;;;;;;;1.67;1.58;;;26.00;99.90;;;;;;5028140;28;20209;-89
2022/09/02 12:01:30;;;;;;;2.10;1.65;;;26.10;99.90;;;;;;5043042;28;20206;-88
2022/09/02 12:04:30;;;;;;;2.17;1.58;;;26.30;99.90;;;;;;5039785;28;20174;-89
2022/09/02 12:07:18;;;;;;;1.88;1.70;;;26.30;99.90;;;;;;5030716;28;20174;-89
2022/09/02 12:09:55;;;;;;;1.90;1.40;;;26.30;99.90;;;;;;5015829;28;20321;-89
2022/09/02 12:12:45;;;;;;;2.00;1.60;;;26.40;99.90;;;;;;5024628;28;20233;-89
2022/09/02 12:15:22;;;;;;;2.03;1.55;;;26.40;99.90;;;;;;5022588;28;20265;-89
2022/09/02 12:20:58;;;;;;;3.65;1.73;;;26.70;99.90;;;;;;5038724;28;20248;-89
2022/09/02 12:23:51;;;;;;;1.65;1.55;;;26.90;98.90;;;;;;5023786;28;20209;-89
2022/09/02 12:26:19;;;;;;;1.77;1.60;;;26.60;97.60;;;;;;5018573;28;20542;-88
2022/09/02 12:28:48;;;;;;;1.70;1.60;;;26.60;99.90;;;;;;5020948;28;20183;-89
2022/09/02 12:31:43;;;;;;;2.28;2.08;;;26.70;98.60;;;;;;5023883;28;20210;-88
2022/09/02 12:34:24;;;;;;;2.10;1.77;;;26.70;99.30;;;;;;5042419;22;20374;-89
2022/09/02 12:36:54;;;;;;;1.67;1.58;;;26.80;98.90;;;;;;4991665;28;20265;-89
2022/09/02 12:39:24;;;;;;;2.47;1.63;;;26.70;98.50;;;;;;4985204;28;20214;-89
2022/09/02 12:42:11;;;;;;;1.75;1.63;;;26.60;98.70;;;;;;5003863;28;20281;-89
2022/09/02 12:45:02;;;;;;;1.85;1.60;;;26.60;98.80;;;;;;4970850;28;20200;-89
2022/09/02 12:47:46;;;;;;;3.05;1.67;;;26.70;99.90;;;;;;4977475;28;20176;-84
2022/09/02 12:50:18;;;;;;;2.70;1.75;;;26.90;99.90;;;;;;4977416;28;20178;-83
2022/09/02 12:52:48;;;;;;;3.38;2.03;;;26.90;98.50;;;;;;4981089;28;20198;-83
2022/09/02 12:55:21;;;;;;;1.70;1.60;;;27.10;98.90;;;;;;4996556;28;20194;-83
2022/09/02 12:57:55;;;;;;;2.20;1.88;;;27.10;97.80;;;;;;4995966;28;20254;-83
2022/09/02 13:00:45;;;;;;;3.17;2.00;;;27.20;98.70;;;;;;4995607;28;20175;-83
2022/09/02 13:03:30;;;;;;;3.85;1.90;;;27.20;98.60;;;;;;4982170;28;20179;-83
2022/09/02 13:06:23;;;;;;;2.30;1.80;;;27.40;98.40;;;;;;4996142;28;20233;-87
2022/09/02 13:09:07;;;;;;;21.98;9.45;;;27.40;96.60;;;;;;4996367;28;20214;-84
2022/09/02 13:12:10;;;;;;;5.93;3.28;;;27.40;98.20;;;;;;4996209;28;20203;-84
2022/09/02 13:15:21;;;;;;;2.90;1.83;;;27.40;99.00;;;;;;5012631;28;20179;-85
2022/09/02 13:18:14;;;;;;;2.67;1.80;;;27.70;98.30;;;;;;4995833;28;20207;-84
2022/09/02 13:20:51;;;;;;;1.70;1.60;;;27.70;97.00;;;;;;4996192;28;20203;-85
2022/09/02 13:23:35;;;;;;;1.83;1.73;;;27.60;98.80;;;;;;4995853;28;20178;-85